Time;durP1;ratioP1;P1;durP2;ratioP2;P2;SDS_P1;SDS_P2;PMS_P1;PMS_P2;Temp;Humidity;BMP_temperature;BMP_pressure;BME280_temperature;BME280_humidity;BME280_pressure;Samples;Min_cycle;Max_cycle;Signal;HPM_P1;HPM_P2
2020/12/30 00:00:20;;;;;;;15.33;7.00;;;;;;;3.13;75.83;99146.99;4813818;60;1134105;-92
2020/12/30 00:05:27;;;;;;;20.50;7.17;;;;;;;3.06;75.70;99152.26;4822503;60;1134098;-90
2020/12/30 00:10:33;;;;;;;14.47;6.53;;;;;;;3.03;75.94;99162.94;4805297;60;1134419;-91
2020/12/30 00:15:39;;;;;;;20.53;7.63;;;;;;;3.06;75.81;99175.77;4804465;60;1134181;-90
2020/12/30 00:20:44;;;;;;;14.70;6.90;;;;;;;3.05;75.74;99192.41;4821792;60;1134068;-90
2020/12/30 00:25:51;;;;;;;19.07;6.80;;;;;;;3.02;75.93;99185.24;4796423;60;1134223;-90
2020/12/30 00:30:57;;;;;;;17.40;6.83;;;;;;;2.94;75.75;99191.44;4819185;60;1134041;-91
2020/12/30 00:36:02;;;;;;;15.00;6.63;;;;;;;2.87;75.54;99201.48;4765530;59;1134249;-91
2020/12/30 00:41:14;;;;;;;23.90;9.57;;;;;;;2.78;75.60;99208.13;4720304;61;1134598;-90
2020/12/30 00:46:20;;;;;;;23.80;10.23;;;;;;;2.73;75.96;99221.14;4735308;61;1134202;-89
2020/12/30 00:51:26;;;;;;;19.43;6.77;;;;;;;2.67;75.86;99220.23;4724243;61;1137206;-90
2020/12/30 00:56:32;;;;;;;12.40;5.07;;;;;;;2.60;75.80;99228.11;4826099;61;21234;-90
2020/12/30 01:01:38;;;;;;;18.93;6.00;;;;;;;2.53;75.84;99225.52;4791942;61;1130173;-90
2020/12/30 01:06:57;;;;;;;9.15;4.37;;;;;;;2.44;76.08;99221.25;4723471;61;1134152;-90
2020/12/30 01:12:05;;;;;;;18.20;6.13;;;;;;;2.37;76.15;99233.50;4751713;61;1132167;-90
2020/12/30 01:17:11;;;;;;;21.57;7.30;;;;;;;2.35;76.23;99241.42;4729739;61;1134622;-90
2020/12/30 01:22:16;;;;;;;15.35;5.12;;;;;;;2.39;76.43;99242.08;4758946;61;1134097;-90
2020/12/30 01:27:22;;;;;;;10.50;4.33;;;;;;;2.35;76.30;99224.94;4725372;61;1134333;-90
2020/12/30 01:32:27;;;;;;;10.53;4.60;;;;;;;2.31;76.29;99223.45;4726275;61;1134389;-90
2020/12/30 01:37:33;;;;;;;8.23;4.37;;;;;;;2.28;76.41;99234.95;4750270;59;1134687;-90
2020/12/30 01:42:45;;;;;;;14.40;6.37;;;;;;;2.29;76.62;99242.30;4769960;60;1132282;-90
2020/12/30 01:47:52;;;;;;;14.38;4.97;;;;;;;2.33;76.71;99245.06;4801728;60;1134165;-91
2020/12/30 01:52:57;;;;;;;16.37;6.03;;;;;;;2.41;76.45;99255.39;4780086;60;1134131;-91
2020/12/30 01:58:03;;;;;;;14.87;6.87;;;;;;;2.36;75.89;99269.19;4771026;60;1134171;-90
2020/12/30 02:03:10;;;;;;;12.87;6.23;;;;;;;2.24;75.96;99282.19;4770368;60;1134077;-90
2020/12/30 02:08:16;;;;;;;9.57;4.70;;;;;;;2.09;76.20;99281.38;4818294;61;1130095;-90
2020/12/30 02:13:22;;;;;;;11.90;5.20;;;;;;;2.08;76.39;99285.75;4783373;60;1132087;-90
2020/12/30 02:18:27;;;;;;;13.43;4.83;;;;;;;2.10;76.60;99297.40;4767050;60;1134299;-90
2020/12/30 02:23:35;;;;;;;19.43;6.90;;;;;;;2.11;76.75;99288.64;4859331;60;21108;-90
2020/12/30 02:28:40;;;;;;;9.27;4.20;;;;;;;2.16;76.73;99287.03;4759238;60;1129974;-91
2020/12/30 02:33:46;;;;;;;16.87;8.03;;;;;;;2.20;76.69;99295.88;4752055;60;1132550;-91
2020/12/30 02:38:55;;;;;;;13.23;5.33;;;;;;;2.22;76.70;99302.30;4810241;60;1134102;-90
2020/12/30 02:44:03;;;;;;;11.30;4.72;;;;;;;2.20;76.64;99305.47;4795419;60;1134125;-90
2020/12/30 02:49:09;;;;;;;11.83;4.90;;;;;;;2.16;76.38;99287.86;4804468;60;1134596;-90
2020/12/30 02:54:15;;;;;;;10.90;5.40;;;;;;;2.18;76.44;99292.98;4833062;60;1134223;-90
2020/12/30 02:59:21;;;;;;;11.03;5.80;;;;;;;2.16;76.42;99288.33;4811863;60;1134116;-91
2020/12/30 03:04:26;;;;;;;13.55;5.20;;;;;;;2.11;76.42;99297.30;4806557;60;1134173;-91
2020/12/30 03:09:32;;;;;;;12.85;5.70;;;;;;;2.05;76.20;99289.02;4797485;60;1134313;-90
2020/12/30 03:14:37;;;;;;;9.50;4.78;;;;;;;1.93;75.69;99290.62;4811398;60;1134129;-91
2020/12/30 03:19:43;;;;;;;13.90;6.80;;;;;;;1.86;75.91;99289.77;4805689;60;1132364;-90
2020/12/30 03:24:48;;;;;;;13.70;6.63;;;;;;;1.79;76.19;99293.70;4805063;60;1134232;-91
2020/12/30 03:29:54;;;;;;;8.87;4.67;;;;;;;1.76;76.20;99298.17;4796062;60;1134117;-90
2020/12/30 03:34:59;;;;;;;10.83;5.07;;;;;;;1.80;76.44;99301.90;4838100;60;1132047;-91
2020/12/30 03:40:05;;;;;;;11.50;5.20;;;;;;;1.82;76.54;99296.12;4772989;60;1134141;-90
2020/12/30 03:45:11;;;;;;;8.77;5.17;;;;;;;1.79;76.44;99296.31;4780041;60;1134039;-89
2020/12/30 03:50:16;;;;;;;10.87;5.20;;;;;;;1.66;75.84;99303.58;4755358;60;1132194;-91
2020/12/30 03:55:22;;;;;;;47.60;10.23;;;;;;;1.56;76.04;99309.41;4800468;60;1134091;-91
2020/12/30 04:00:27;;;;;;;36.13;10.10;;;;;;;1.42;75.97;99310.23;4759074;60;1136798;-90
2020/12/30 04:05:33;;;;;;;22.62;6.67;;;;;;;1.35;76.07;99304.58;4780141;60;1136261;-90
2020/12/30 04:10:39;;;;;;;17.70;6.30;;;;;;;1.32;76.42;99303.91;4772576;60;1134470;-90
2020/12/30 04:15:47;;;;;;;31.30;9.37;;;;;;;1.33;76.66;99306.42;4773662;59;1134135;-90
2020/12/30 04:20:52;;;;;;;159.47;39.97;;;;;;;1.30;76.23;99304.00;4743214;60;1134371;-89
2020/12/30 04:25:58;;;;;;;59.60;25.37;;;;;;;1.23;76.24;99311.78;4753325;59;1138287;-90
2020/12/30 04:31:03;;;;;;;181.50;91.50;;;;;;;1.08;76.06;99312.68;4785578;60;1136328;-90
2020/12/30 04:36:10;;;;;;;65.70;29.93;;;;;;;1.00;76.17;99312.30;4851597;61;21600;-90
2020/12/30 04:41:17;;;;;;;75.20;20.77;;;;;;;0.92;76.51;99312.72;4863437;60;21181;-90
2020/12/30 04:46:26;;;;;;;111.88;25.70;;;;;;;0.92;76.65;99317.09;4801740;61;1132150;-90
2020/12/30 04:51:31;;;;;;;102.47;25.57;;;;;;;0.92;76.68;99315.33;4764141;61;1138710;-90
2020/12/30 04:56:44;;;;;;;86.73;23.90;;;;;;;0.88;76.68;99320.81;4770516;61;1140474;-90
2020/12/30 05:02:12;;;;;;;58.68;16.90;;;;;;;0.84;76.77;99324.05;4757786;61;1136700;-90
2020/12/30 05:07:17;;;;;;;51.60;14.93;;;;;;;0.85;76.38;99324.89;4757137;60;1137194;-90
2020/12/30 05:12:24;;;;;;;35.40;12.90;;;;;;;0.84;76.81;99325.34;4781240;61;1136364;-90
2020/12/30 05:17:30;;;;;;;35.90;12.70;;;;;;;0.78;76.49;99337.39;4766587;60;1136607;-90
2020/12/30 05:22:36;;;;;;;56.90;18.03;;;;;;;0.71;76.50;99342.59;4840013;61;1134295;-90
2020/12/30 05:27:41;;;;;;;99.23;27.30;;;;;;;0.66;76.42;99339.39;4859467;61;21194;-90
2020/12/30 05:32:47;;;;;;;68.93;22.47;;;;;;;0.53;76.45;99348.34;4820478;61;1132241;-90
2020/12/30 05:37:52;;;;;;;40.83;15.80;;;;;;;0.52;76.69;99342.77;4749615;61;1136170;-89
2020/12/30 05:43:14;;;;;;;135.37;45.70;;;;;;;0.49;76.89;99353.80;4808782;61;1134272;-89
2020/12/30 05:48:21;;;;;;;403.60;153.17;;;;;;;0.43;76.86;99364.09;4787766;60;1138498;-90
2020/12/30 05:53:27;;;;;;;463.37;134.93;;;;;;;0.38;77.15;99380.86;4812507;60;1208595;-90
2020/12/30 05:58:36;;;;;;;300.82;114.42;;;;;;;0.40;77.19;99388.12;4756603;60;1140711;-90
2020/12/30 06:03:42;;;;;;;285.70;99.80;;;;;;;0.38;77.37;99396.00;4781514;60;1140515;-90
2020/12/30 06:08:49;;;;;;;131.77;43.13;;;;;;;0.39;77.40;99404.64;4795955;60;1138465;-90
2020/12/30 06:13:56;;;;;;;56.93;19.90;;;;;;;0.39;77.53;99416.34;4759984;61;1138360;-89
2020/12/30 06:19:02;;;;;;;29.10;11.03;;;;;;;0.42;78.04;99414.43;4764080;60;1136180;-90
2020/12/30 06:24:14;;;;;;;24.97;10.27;;;;;;;0.45;78.41;99416.88;4753075;60;1136804;-90
2020/12/30 06:29:20;;;;;;;24.67;9.40;;;;;;;0.43;78.61;99427.81;4729773;60;1136330;-90
2020/12/30 06:34:25;;;;;;;20.97;8.77;;;;;;;0.46;78.48;99425.02;4777336;60;1134262;-90
2020/12/30 06:39:31;;;;;;;42.90;14.57;;;;;;;0.52;78.56;99419.96;4759555;60;1134419;-89
2020/12/30 06:44:45;;;;;;;67.50;21.80;;;;;;;0.55;78.37;99417.20;4785706;60;1136401;-89
2020/12/30 06:49:50;;;;;;;619.57;251.87;;;;;;;0.58;78.38;99431.35;4799395;60;1136505;-90
2020/12/30 06:54:56;;;;;;;515.03;195.77;;;;;;;0.53;78.24;99426.39;4869837;60;1140499;-90
2020/12/30 07:00:03;;;;;;;381.43;140.67;;;;;;;0.56;78.25;99425.39;4799090;60;1140660;-88
2020/12/30 07:05:08;;;;;;;163.60;63.93;;;;;;;0.58;78.19;99433.95;4808025;60;1140412;-88
2020/12/30 07:10:26;;;;;;;147.30;55.37;;;;;;;0.54;78.00;99444.98;4902942;60;21225;-88
2020/12/30 07:15:31;;;;;;;112.13;43.43;;;;;;;0.55;78.11;99447.96;4914024;60;21189;-87
2020/12/30 07:20:41;;;;;;;111.17;37.63;;;;;;;0.56;78.08;99449.64;4798970;60;1134382;-88
2020/12/30 07:25:50;;;;;;;90.13;36.07;;;;;;;0.56;78.17;99456.61;4827813;60;1138288;-87
2020/12/30 07:30:56;;;;;;;119.83;40.40;;;;;;;0.49;77.84;99461.74;4846567;60;1136347;-87
2020/12/30 07:36:06;;;;;;;241.10;89.90;;;;;;;0.44;77.60;99465.91;4789956;60;1138341;-88
2020/12/30 07:41:13;;;;;;;339.87;124.60;;;;;;;0.37;77.76;99472.80;4883599;60;1136333;-88
2020/12/30 07:46:21;;;;;;;173.23;67.73;;;;;;;0.40;78.25;99479.98;4796509;59;21174;-88
2020/12/30 07:51:26;;;;;;;76.17;30.67;;;;;;;0.34;78.66;99483.73;4896033;61;21169;-88
2020/12/30 07:56:38;;;;;;;77.47;33.30;;;;;;;0.36;78.97;99494.06;4802454;60;1132334;-88
2020/12/30 08:01:39;;;;;;;125.40;51.43;;;;;;;0.48;78.85;99496.48;4742323;60;1136466;-88
2020/12/30 08:06:46;;;;;;;106.53;42.87;;;;;;;0.52;78.58;99490.20;4819000;61;21308;-88
2020/12/30 08:12:04;;;;;;;63.27;28.67;;;;;;;0.75;79.47;99484.63;4750055;60;1134176;-88
2020/12/30 08:17:15;;;;;;;77.97;33.80;;;;;;;1.00;79.72;99482.81;4769583;60;1136626;-88
2020/12/30 08:22:27;;;;;;;52.60;23.73;;;;;;;1.26;80.23;99487.41;4827988;60;1136320;-88
2020/12/30 08:27:32;;;;;;;67.97;34.47;;;;;;;1.58;79.92;99488.20;4786289;60;1136177;-88
2020/12/30 08:32:52;;;;;;;60.77;29.43;;;;;;;1.76;79.47;99483.23;4771377;60;1136315;-91
2020/12/30 08:38:13;;;;;;;76.73;36.60;;;;;;;1.97;79.28;99488.13;4770246;60;1136691;-88
2020/12/30 08:43:29;;;;;;;38.80;19.03;;;;;;;2.14;79.53;99493.16;4748810;60;1136553;-88
2020/12/30 08:48:48;;;;;;;82.00;36.03;;;;;;;2.40;79.76;99495.54;4760534;60;1136675;-89
2020/12/30 08:54:33;;;;;;;78.60;35.63;;;;;;;2.47;78.23;99502.89;4777686;60;1136155;-88
2020/12/30 08:59:37;;;;;;;;;;;;;;;2.36;77.83;99507.92;4765033;60;1136508;-88
2020/12/30 09:04:56;;;;;;;72.40;30.27;;;;;;;2.44;79.24;99508.28;4769220;60;977672;-88
2020/12/30 09:10:06;;;;;;;58.97;27.50;;;;;;;2.63;79.26;99509.32;4779644;60;1134504;-88
2020/12/30 09:15:14;;;;;;;121.00;50.27;;;;;;;2.75;78.56;99515.09;4797604;60;1136391;-89
2020/12/30 09:20:20;;;;;;;72.50;32.88;;;;;;;2.77;78.56;99511.08;4762781;60;1138544;-89
2020/12/30 09:25:28;;;;;;;57.33;27.77;;;;;;;2.97;78.79;99515.08;4800890;60;1136190;-91
2020/12/30 09:30:35;;;;;;;34.17;14.97;;;;;;;3.12;77.72;99509.73;4786592;60;1136387;-90
2020/12/30 09:35:41;;;;;;;122.13;41.70;;;;;;;3.18;77.06;99499.38;4733692;60;1136528;-89
2020/12/30 09:40:50;;;;;;;38.77;13.93;;;;;;;3.26;77.05;99514.08;4777179;60;1138746;-89
2020/12/30 09:46:01;;;;;;;42.90;15.57;;;;;;;3.26;77.05;99514.08;4776587;59;1136756;-89
2020/12/30 09:51:07;;;;;;;51.43;19.43;;;;;;;3.20;77.28;99513.18;4764348;59;1136273;-89
2020/12/30 09:56:16;;;;;;;51.20;17.53;;;;;;;3.16;77.45;99506.00;4823151;61;1136233;-89
2020/12/30 10:01:26;;;;;;;50.03;19.40;;;;;;;3.22;77.49;99502.14;4766891;60;1136395;-88
2020/12/30 10:06:32;;;;;;;51.92;20.57;;;;;;;3.33;77.51;99503.63;4764744;60;1136773;-88
2020/12/30 10:11:38;;;;;;;46.93;17.67;;;;;;;3.39;77.59;99501.06;4765254;60;1136711;-87
2020/12/30 10:16:44;;;;;;;55.52;27.75;;;;;;;3.46;77.53;99493.21;4763851;60;1136498;-88
2020/12/30 10:21:49;;;;;;;25.90;9.50;;;;;;;3.62;77.23;99498.28;4748973;60;1136559;-88
2020/12/30 10:26:55;;;;;;;63.43;22.33;;;;;;;3.70;76.97;99486.37;4776863;60;1134028;-88
2020/12/30 10:32:00;;;;;;;22.23;10.87;;;;;;;3.81;76.54;99493.53;4749519;60;1136158;-88
2020/12/30 10:37:07;;;;;;;23.27;10.77;;;;;;;3.96;75.47;99485.13;4754094;60;1136411;-88
2020/12/30 10:42:13;;;;;;;117.83;56.23;;;;;;;4.08;75.67;99473.84;4757252;60;1136621;-89
2020/12/30 10:47:18;;;;;;;71.93;20.97;;;;;;;4.13;75.60;99469.95;4773315;60;1138430;-89
2020/12/30 10:52:25;;;;;;;82.78;28.92;;;;;;;4.22;75.05;99472.42;4815950;60;1136369;-89
2020/12/30 10:57:30;;;;;;;43.40;20.20;;;;;;;4.28;73.38;99471.98;4772056;60;1136378;-89
2020/12/30 11:02:36;;;;;;;47.45;25.62;;;;;;;4.36;72.38;99468.39;4844780;60;1136315;-90
2020/12/30 11:07:42;;;;;;;34.73;16.03;;;;;;;4.32;73.02;99444.67;4768833;60;1140416;-90
2020/12/30 11:12:48;;;;;;;68.53;22.03;;;;;;;4.39;73.50;99452.48;4815042;60;1136127;-89
2020/12/30 11:17:57;;;;;;;44.60;19.57;;;;;;;4.40;72.98;99455.47;4763861;60;1136262;-89
2020/12/30 11:23:03;;;;;;;38.23;16.03;;;;;;;4.47;73.84;99459.31;4777885;60;1136671;-89
2020/12/30 11:28:09;;;;;;;43.33;16.10;;;;;;;4.58;74.01;99462.02;4790811;60;1138355;-89
2020/12/30 11:33:15;;;;;;;32.60;16.57;;;;;;;4.70;74.38;99453.80;4791018;60;1136199;-89
2020/12/30 11:38:21;;;;;;;37.03;15.30;;;;;;;4.85;74.02;99459.27;4790270;60;1136721;-89
2020/12/30 11:43:28;;;;;;;39.40;19.80;;;;;;;5.12;73.28;99452.98;4768086;60;1136358;-89
2020/12/30 11:48:33;;;;;;;27.93;14.47;;;;;;;5.25;71.04;99459.85;4812166;60;1136258;-90
2020/12/30 11:53:39;;;;;;;33.73;18.63;;;;;;;5.37;71.86;99457.27;4786744;60;1136258;-89
2020/12/30 11:58:44;;;;;;;26.45;11.63;;;;;;;5.73;71.18;99451.95;4767459;60;1136699;-90
2020/12/30 12:03:50;;;;;;;20.77;10.53;;;;;;;6.34;71.79;99454.73;4862277;60;1138852;-90
2020/12/30 12:08:56;;;;;;;23.37;11.47;;;;;;;6.91;71.02;99457.69;4778890;60;1136548;-90
2020/12/30 12:14:03;;;;;;;75.90;29.70;;;;;;;7.44;70.49;99455.18;4778522;60;1136478;-90
2020/12/30 12:19:09;;;;;;;38.00;18.07;;;;;;;7.96;68.79;99451.69;4781618;60;1136183;-90
2020/12/30 12:24:15;;;;;;;35.97;15.30;;;;;;;8.35;63.26;99458.07;4799151;60;1136197;-92
2020/12/30 12:29:42;;;;;;;27.63;12.80;;;;;;;8.63;66.17;99446.47;4820281;60;1138214;-89
2020/12/30 12:34:53;;;;;;;29.75;13.98;;;;;;;8.84;64.39;99449.05;4791790;60;1138998;-89
2020/12/30 12:39:59;;;;;;;28.87;12.37;;;;;;;9.14;64.73;99452.95;4822982;60;1136339;-89
2020/12/30 12:45:05;;;;;;;26.37;12.80;;;;;;;9.48;63.03;99454.22;4776991;60;1138361;-90
2020/12/30 12:50:10;;;;;;;23.90;11.57;;;;;;;9.62;63.59;99450.36;4781908;60;1138702;-90
2020/12/30 12:55:16;;;;;;;35.30;20.47;;;;;;;9.82;62.03;99453.33;4749048;60;1138573;-90
2020/12/30 13:00:21;;;;;;;30.23;13.73;;;;;;;10.02;61.32;99454.63;4770262;60;1138432;-89
2020/12/30 13:05:27;;;;;;;55.73;21.53;;;;;;;10.23;61.44;99457.14;4710340;60;1140932;-89
2020/12/30 13:10:32;;;;;;;50.23;21.80;;;;;;;10.58;58.44;99453.32;4759337;60;1140619;-89
2020/12/30 13:15:38;;;;;;;51.47;19.57;;;;;;;10.70;56.60;99449.51;4762372;60;1141034;-89
2020/12/30 13:20:43;;;;;;;49.40;25.82;;;;;;;10.66;56.09;99448.16;4768405;60;1140706;-89
2020/12/30 13:25:49;;;;;;;51.15;25.23;;;;;;;10.74;57.43;99446.09;4760303;60;1140627;-88
2020/12/30 13:30:55;;;;;;;34.73;17.82;;;;;;;10.79;56.10;99451.30;4752031;61;1141015;-89
2020/12/30 13:36:00;;;;;;;205.67;113.60;;;;;;;10.96;56.17;99462.08;4759370;59;1140681;-88
2020/12/30 13:41:06;;;;;;;67.93;26.83;;;;;;;10.36;55.46;99456.34;4768763;60;1144518;-91
2020/12/30 13:46:12;;;;;;;195.70;64.77;;;;;;;9.47;54.51;99460.47;4782764;60;1141048;-87
2020/12/30 13:51:19;;;;;;;126.40;49.40;;;;;;;8.54;56.29;99463.92;4750931;60;1138515;-88
2020/12/30 13:56:30;;;;;;;176.80;63.67;;;;;;;7.83;58.51;99471.27;4777314;60;1138574;-89
2020/12/30 14:01:35;;;;;;;45.87;20.20;;;;;;;7.36;59.71;99472.05;4752376;60;1138586;-88
2020/12/30 14:06:41;;;;;;;68.77;30.10;;;;;;;6.93;60.76;99468.92;4781024;60;1136731;-89
2020/12/30 14:11:46;;;;;;;85.87;34.15;;;;;;;6.86;61.33;99472.17;4768529;60;1136530;-89
2020/12/30 14:16:52;;;;;;;183.80;68.12;;;;;;;6.87;61.56;99474.68;4748517;60;1136749;-89
2020/12/30 14:21:57;;;;;;;273.07;94.67;;;;;;;6.73;62.21;99479.32;4751977;60;1138640;-89
2020/12/30 14:27:04;;;;;;;191.57;79.73;;;;;;;6.56;62.86;99487.23;4761136;60;1138782;-89
2020/12/30 14:32:20;;;;;;;216.87;95.97;;;;;;;6.39;63.34;99488.52;4760469;60;1138833;-89
2020/12/30 14:37:26;;;;;;;180.87;68.37;;;;;;;6.16;63.79;99495.52;4807685;60;1138431;-88
2020/12/30 14:42:31;;;;;;;236.37;90.30;;;;;;;5.89;63.87;99501.05;4738531;60;1138280;-89
2020/12/30 14:47:37;;;;;;;152.93;62.27;;;;;;;5.64;64.39;99498.08;4757418;60;1138510;-88
2020/12/30 14:52:44;;;;;;;103.73;44.97;;;;;;;5.52;64.87;99501.57;4745864;59;1138787;-88
2020/12/30 14:58:08;;;;;;;;;;;;;;;;;;;;;
2020/12/30 15:03:26;;;;;;;85.47;35.57;;;;;;;5.32;65.45;99502.20;4825587;61;1138458;-88
2020/12/30 15:08:31;;;;;;;125.60;55.67;;;;;;;5.10;65.25;99504.67;4771127;60;1136453;-89
2020/12/30 15:13:39;;;;;;;120.03;51.50;;;;;;;4.78;65.30;99503.84;4815195;60;1136214;-87
2020/12/30 15:18:54;;;;;;;96.77;40.93;;;;;;;4.38;65.42;99514.94;4793471;60;1138428;-87
2020/12/30 15:24:00;;;;;;;172.47;76.17;;;;;;;3.99;65.92;99518.91;4766971;60;1136286;-86
2020/12/30 15:29:06;;;;;;;241.83;95.27;;;;;;;3.82;66.58;99523.94;4866522;61;21602;-87
2020/12/30 15:34:12;;;;;;;222.37;89.33;;;;;;;3.74;67.02;99518.39;4855681;60;1136877;-87
2020/12/30 15:39:18;;;;;;;244.80;95.07;;;;;;;3.72;67.71;99514.56;4807312;60;1138572;-86
2020/12/30 15:44:24;;;;;;;323.83;113.80;;;;;;;3.74;68.03;99518.39;4769276;60;1138798;-87
2020/12/30 15:49:29;;;;;;;225.50;82.07;;;;;;;3.71;68.13;99517.28;4746553;61;1141072;-86
2020/12/30 15:54:35;;;;;;;292.23;95.90;;;;;;;3.56;67.54;99524.34;4862928;59;1138582;-87
2020/12/30 15:59:40;;;;;;;253.77;89.50;;;;;;;3.45;67.81;99532.89;4866630;60;1138765;-88
2020/12/30 16:04:46;;;;;;;167.93;61.70;;;;;;;3.35;67.58;99523.13;4908826;59;1136395;-87
2020/12/30 16:09:53;;;;;;;126.60;45.77;;;;;;;3.12;67.68;99525.88;4873748;60;21190;-90
2020/12/30 16:14:58;;;;;;;201.30;75.53;;;;;;;2.94;68.19;99531.77;4866232;61;21173;-89
2020/12/30 16:20:07;;;;;;;366.43;166.37;;;;;;;2.90;68.69;99532.08;4866581;60;21185;-89
2020/12/30 16:25:13;;;;;;;352.87;138.33;;;;;;;2.88;68.84;99529.56;4945892;59;21166;-89
2020/12/30 16:30:18;;;;;;;177.90;67.23;;;;;;;2.78;68.88;99529.73;4975418;59;21108;-88
2020/12/30 16:35:29;;;;;;;218.50;77.80;;;;;;;2.71;69.20;99533.20;4975083;59;21182;-89
2020/12/30 16:40:36;;;;;;;174.07;70.13;;;;;;;2.66;69.24;99539.16;4975260;59;21178;-89
2020/12/30 16:45:42;;;;;;;145.13;71.33;;;;;;;2.65;69.24;99545.31;4939179;60;21177;-89
2020/12/30 16:50:48;;;;;;;187.37;72.77;;;;;;;2.59;69.25;99542.25;4892133;59;21188;-89
2020/12/30 16:55:54;;;;;;;199.90;76.35;;;;;;;2.43;69.37;99538.42;4855575;59;1134297;-90
2020/12/30 17:01:00;;;;;;;134.37;52.90;;;;;;;2.39;69.51;99545.58;4849459;59;1138342;-89
2020/12/30 17:06:06;;;;;;;167.13;62.73;;;;;;;2.40;69.68;99552.48;4852258;60;1138798;-89
2020/12/30 17:11:14;;;;;;;419.07;112.77;;;;;;;2.42;69.82;99556.30;4758512;59;1139137;-86
2020/12/30 17:16:19;;;;;;;194.33;68.77;;;;;;;2.34;69.52;99556.75;4875306;59;1138356;-89
2020/12/30 17:21:25;;;;;;;332.60;122.97;;;;;;;2.30;69.41;99566.14;4940949;59;1138607;-88
2020/12/30 17:26:31;;;;;;;389.03;142.83;;;;;;;2.26;69.42;99570.72;4874260;59;1140658;-88
2020/12/30 17:31:36;;;;;;;187.47;72.40;;;;;;;2.15;69.47;99566.58;4845735;59;1140479;-88
2020/12/30 17:36:42;;;;;;;193.70;65.60;;;;;;;2.06;69.77;99575.78;4890860;59;21252;-88
2020/12/30 17:41:47;;;;;;;203.93;71.67;;;;;;;2.07;70.02;99585.75;4843562;59;1134286;-89
2020/12/30 17:46:53;;;;;;;231.47;88.00;;;;;;;2.11;69.84;99597.70;4811008;60;1138309;-88
2020/12/30 17:51:59;;;;;;;254.37;92.27;;;;;;;2.04;69.61;99601.57;4929004;60;21233;-88
2020/12/30 17:57:05;;;;;;;246.10;92.77;;;;;;;1.96;69.87;99613.76;4811711;59;1134426;-88
2020/12/30 18:02:10;;;;;;;228.77;82.33;;;;;;;1.90;70.19;99614.55;4874465;60;1139113;-88
2020/12/30 18:07:16;;;;;;;172.07;70.57;;;;;;;1.85;70.18;99613.50;4845984;60;1138525;-88
2020/12/30 18:12:22;;;;;;;146.43;60.40;;;;;;;1.81;70.09;99622.45;4819471;59;1138359;-88
2020/12/30 18:17:27;;;;;;;170.87;65.47;;;;;;;1.80;70.22;99621.22;4916545;59;1136350;-88
2020/12/30 18:22:33;;;;;;;168.17;61.90;;;;;;;1.76;70.21;99625.76;4937685;60;21453;-89
2020/12/30 18:27:48;;;;;;;388.17;197.17;;;;;;;1.70;69.64;99636.52;4977049;59;21265;-89
2020/12/30 18:32:52;;;;;;;427.95;168.72;;;;;;;1.57;70.11;99638.12;4897881;59;21265;-88
2020/12/30 18:37:58;;;;;;;172.17;59.57;;;;;;;1.58;71.03;99627.61;4786918;59;1136394;-88
2020/12/30 18:43:04;;;;;;;156.77;61.17;;;;;;;1.57;71.11;99629.84;4796777;60;1138828;-89
2020/12/30 18:48:11;;;;;;;176.07;74.27;;;;;;;1.60;71.13;99634.05;4866927;59;1139050;-89
2020/12/30 18:53:17;;;;;;;162.57;67.17;;;;;;;1.61;71.02;99637.88;4883222;59;1138533;-89
2020/12/30 18:58:22;;;;;;;109.63;49.97;;;;;;;1.59;71.04;99644.09;4765956;59;1138449;-89
2020/12/30 19:03:30;;;;;;;119.80;53.73;;;;;;;1.51;70.79;99647.12;4893970;59;1138216;-89
2020/12/30 19:08:36;;;;;;;134.03;56.37;;;;;;;1.48;70.69;99653.80;4984159;59;21161;-86
2020/12/30 19:13:42;;;;;;;165.53;67.97;;;;;;;1.26;70.40;99666.28;4910065;59;21216;-87
2020/12/30 19:18:49;;;;;;;134.90;59.77;;;;;;;1.23;70.88;99670.34;4987125;59;21103;-88
2020/12/30 19:23:55;;;;;;;140.60;58.20;;;;;;;1.23;71.11;99665.98;4998585;59;21248;-88
2020/12/30 19:29:00;;;;;;;136.70;57.00;;;;;;;1.19;70.94;99666.24;4997549;59;22161;-89
2020/12/30 19:34:06;;;;;;;130.87;56.07;;;;;;;1.09;70.81;99678.05;4981273;59;21115;-88
2020/12/30 19:39:12;;;;;;;132.20;55.67;;;;;;;1.10;71.31;99683.63;4997350;59;21184;-88
2020/12/30 19:44:18;;;;;;;146.20;60.63;;;;;;;1.12;71.40;99679.19;4895618;59;21126;-88
2020/12/30 19:49:23;;;;;;;168.53;69.53;;;;;;;1.10;71.18;99683.63;4895528;59;21175;-88
2020/12/30 19:54:29;;;;;;;162.25;69.65;;;;;;;1.00;71.12;99681.98;4907650;59;1134316;-88
2020/12/30 19:59:35;;;;;;;167.23;65.67;;;;;;;1.00;71.66;99690.63;4839522;59;1138610;-88
2020/12/30 20:04:41;;;;;;;165.10;66.17;;;;;;;1.00;71.67;99684.58;4819327;59;1138412;-88
2020/12/30 20:09:47;;;;;;;400.80;144.43;;;;;;;0.99;71.88;99692.86;4878822;61;21161;-88
2020/12/30 20:14:55;;;;;;;362.17;122.82;;;;;;;0.96;72.03;99693.00;4826993;59;1136550;-89
2020/12/30 20:20:01;;;;;;;462.87;161.13;;;;;;;0.93;72.41;99697.52;4861815;59;1140415;-88
2020/12/30 20:25:06;;;;;;;554.20;206.90;;;;;;;0.98;72.45;99696.84;4926803;59;21173;-89
2020/12/30 20:30:12;;;;;;;731.13;286.80;;;;;;;1.04;72.76;99703.04;4902266;59;21174;-87
2020/12/30 20:35:20;;;;;;;570.63;209.43;;;;;;;1.09;72.95;99706.69;4925670;59;21181;-88
2020/12/30 20:40:25;;;;;;;328.40;117.17;;;;;;;1.20;72.95;99709.59;4959843;59;21162;-88
2020/12/30 20:45:31;;;;;;;422.70;148.73;;;;;;;1.25;73.17;99719.30;4847641;59;1136476;-88
2020/12/30 20:50:36;;;;;;;366.60;127.33;;;;;;;1.17;73.09;99717.11;4793025;59;1140398;-88
2020/12/30 20:55:43;;;;;;;366.77;130.63;;;;;;;1.13;73.15;99718.64;4889984;59;1138299;-89
2020/12/30 21:00:49;;;;;;;239.90;86.67;;;;;;;1.10;73.58;99718.78;4824645;59;1140569;-88
2020/12/30 21:05:54;;;;;;;319.37;113.30;;;;;;;1.16;73.76;99721.09;4663123;60;1138893;-88
2020/12/30 21:11:09;;;;;;;615.97;218.83;;;;;;;1.21;73.76;99717.34;4744323;61;1139274;-88
2020/12/30 21:16:15;;;;;;;295.07;99.63;;;;;;;1.25;74.04;99716.23;4808066;59;21121;-88
2020/12/30 21:21:20;;;;;;;226.30;82.43;;;;;;;1.28;73.98;99722.59;4726970;59;1134477;-89
2020/12/30 21:26:26;;;;;;;286.33;98.37;;;;;;;1.28;73.76;99722.59;4747803;59;1138267;-88
2020/12/30 21:31:52;;;;;;;266.20;88.33;;;;;;;1.26;73.83;99727.03;4775558;59;1138460;-88
2020/12/30 21:36:58;;;;;;;284.03;96.90;;;;;;;1.27;74.01;99723.97;4816373;61;21486;-86
2020/12/30 21:42:04;;;;;;;187.07;63.47;;;;;;;1.28;73.80;99729.09;4845323;59;582190;-88
2020/12/30 21:47:09;;;;;;;196.43;66.73;;;;;;;1.17;73.71;99727.98;4740299;59;1136366;-88
2020/12/30 21:52:15;;;;;;;203.47;69.03;;;;;;;1.14;73.74;99732.04;4774439;59;1138978;-88
2020/12/30 21:57:31;;;;;;;370.87;130.20;;;;;;;1.16;73.90;99724.53;4831688;61;21239;-89
2020/12/30 22:02:37;;;;;;;236.23;78.83;;;;;;;1.16;74.03;99718.02;4911304;59;21182;-87
2020/12/30 22:07:42;;;;;;;342.47;115.63;;;;;;;1.11;73.53;99723.92;4854400;59;1134442;-87
2020/12/30 22:12:50;;;;;;;370.37;120.77;;;;;;;0.98;73.34;99733.28;4952580;59;1138523;-87
2020/12/30 22:17:56;;;;;;;168.17;63.93;;;;;;;0.84;72.92;99741.80;4937345;59;21143;-87
2020/12/30 22:23:02;;;;;;;356.00;121.90;;;;;;;0.73;73.25;99735.45;4935522;59;21459;-87
2020/12/30 22:28:08;;;;;;;311.93;106.70;;;;;;;0.69;73.66;99742.09;4899936;60;1136342;-88
2020/12/30 22:33:13;;;;;;;307.33;105.37;;;;;;;0.61;73.43;99746.82;4899144;58;1140665;-88
2020/12/30 22:38:19;;;;;;;257.17;93.10;;;;;;;0.59;73.62;99755.19;4939337;59;1140322;-88
2020/12/30 22:43:24;;;;;;;154.13;56.27;;;;;;;0.53;73.40;99754.17;4996808;59;21235;-87
2020/12/30 22:48:32;;;;;;;155.93;58.83;;;;;;;0.49;73.42;99759.13;4953234;59;21195;-86
2020/12/30 22:53:39;;;;;;;94.30;35.67;;;;;;;0.29;73.08;99754.91;4963702;59;21427;-88
2020/12/30 22:58:46;;;;;;;132.60;49.57;;;;;;;0.14;73.82;99750.44;4881375;61;21112;-87
2020/12/30 23:03:52;;;;;;;152.43;58.83;;;;;;;0.13;74.58;99761.75;4874978;60;21192;-87
2020/12/30 23:08:57;;;;;;;104.67;43.13;;;;;;;0.16;74.74;99754.23;4875177;60;21144;-87
2020/12/30 23:14:03;;;;;;;130.63;50.77;;;;;;;0.22;75.01;99752.66;4951906;60;21454;-87